Main page
METAR-TAF:

METAR-TAF

Airports :

Tarbes–Lourdes–Pyrénées Airport

Tarbes Lourdes, France

latitude: 43-11N, longitude: 000-00W, elevation: 379 m

Current weather observation

The report was made 42 minutes ago, at 13:00 UTC
Wind 6 kt from the East/Northeast, varying between North and Southeast
Temperature 28°C
Humidity 37%
Pressure 1023 hPa
Visibility 10 km or more
no clouds below 1500 m and no cumulonimbus

METAR: LFBT 281300Z AUTO 06006KT 360V130 CAVOK 28/12 Q1023

Time: 15:42 (13:42 UTC)


TAF: missing

Weather observations and forecasts of more than 4000 airports (METAR and TAF reports).

The available stations are represented by yellow and red dots on the map.

Hover mouse over dot to see the name of the station.

Then click to see weather observations and forecasts.

To change the map : click on the green buttons with a black cross to zoom in, on the green button with a dash to zoom out, or on the green arrows for adjacent maps.


METAR-TAF: